Kinrikimaru — JL6545 — position and weather

sailwx.info

Track history (hours):
 
Tides and Currents Weather Stations Pressure Air Temp Water Temp Dewpoint Dewpoint Depression Visibility Wind Speed Wind Dir Waves Ship Positions

Kinrikimaru

Last reported at 2016-Sep-12 07:19 UTC. Time now 2016-Sep-25 12:17 UTC.
Position N 35°03' E 139°34'.
Warning: this ship's position is 13 days out of date.

Length 76 m; draft 4 m.

Type: Cargo ship. MMSI: 431500615.

Date/timePositionNaut miles runAvg speedWind from/ knotsBaromVisibWave heightAir tempDewpointWater temp
2016-Sep-12 07:19N 35°03' E 139°34'1013.0
2016-Sep-12 06:33N 35°09' E 139°44'21 6.9
2016-Sep-12 03:33N 35°30' E 139°43'0 0.0
2016-Sep-12 01:33N 35°30' E 139°43'0 0.0
2016-Sep-11 23:33N 35°30' E 139°43'3 2.6
2016-Sep-11 22:34N 35°27' E 139°43'1 0.7
2016-Sep-11 21:32N 35°26' E 139°43'0 0.0
2016-Sep-11 20:32N 35°26' E 139°43'0 0.0
2016-Sep-11 19:32N 35°26' E 139°43'0 0.0
2016-Sep-11 18:32N 35°26' E 139°43'0 0.0
2016-Sep-11 17:32N 35°26' E 139°43'0 0.0
2016-Sep-11 16:32N 35°26' E 139°43'0 0.0
2016-Sep-11 15:32N 35°26' E 139°43'0 0.0
2016-Sep-11 14:32N 35°26' E 139°43'0 0.0
2016-Sep-11 13:32N 35°26' E 139°43'0 0.0
2016-Sep-11 12:32N 35°26' E 139°43'0 0.0
2016-Sep-11 11:32N 35°26' E 139°43'0 0.0
2016-Sep-11 10:32N 35°26' E 139°43'0 0.0
2016-Sep-11 08:32N 35°26' E 139°43'0 0.1
2016-Sep-11 07:32N 35°26' E 139°43'20 5.0
2016-Sep-11 03:33N 35°07' E 139°45'  
Track history (hours):
 
Tides and Currents Weather Stations Pressure Air Temp Water Temp Dewpoint Dewpoint Depression Visibility Wind Speed Wind Dir Waves Ship Positions

Kinrikimaru

Last reported at 2016-Sep-12 07:19 UTC. Time now 2016-Sep-25 12:17 UTC.
Position N 35°03' E 139°34'.
Warning: this ship's position is 13 days out of date.

Length 76 m; draft 4 m.

Type: Cargo ship. MMSI: 431500615.

Date/timePositionNaut miles runAvg speedWind from/ knotsBaromVisibWave heightAir tempDewpointWater temp
2016-Sep-12 07:19N 35°03' E 139°34'1013.0
2016-Sep-12 06:33N 35°09' E 139°44'21 6.9
2016-Sep-12 03:33N 35°30' E 139°43'0 0.0
2016-Sep-12 01:33N 35°30' E 139°43'0 0.0
2016-Sep-11 23:33N 35°30' E 139°43'3 2.6
2016-Sep-11 22:34N 35°27' E 139°43'1 0.7
2016-Sep-11 21:32N 35°26' E 139°43'0 0.0
2016-Sep-11 20:32N 35°26' E 139°43'0 0.0
2016-Sep-11 19:32N 35°26' E 139°43'0 0.0
2016-Sep-11 18:32N 35°26' E 139°43'0 0.0
2016-Sep-11 17:32N 35°26' E 139°43'0 0.0
2016-Sep-11 16:32N 35°26' E 139°43'0 0.0
2016-Sep-11 15:32N 35°26' E 139°43'0 0.0
2016-Sep-11 14:32N 35°26' E 139°43'0 0.0
2016-Sep-11 13:32N 35°26' E 139°43'0 0.0
2016-Sep-11 12:32N 35°26' E 139°43'0 0.0
2016-Sep-11 11:32N 35°26' E 139°43'0 0.0
2016-Sep-11 10:32N 35°26' E 139°43'0 0.0
2016-Sep-11 08:32N 35°26' E 139°43'0 0.1
2016-Sep-11 07:32N 35°26' E 139°43'20 5.0
2016-Sep-11 03:33N 35°07' E 139°45'  

Dump ship's entire track history